createdAt,value
2019-02-07T00:02:23.272Z,100482.20
2019-02-07T00:04:50.174Z,100482.69
2019-02-07T00:07:16.331Z,100484.80
2019-02-07T00:09:42.492Z,100492.83
2019-02-07T00:12:08.783Z,100496.91
2019-02-07T00:14:39.916Z,100495.61
2019-02-07T00:17:03.109Z,100494.23
2019-02-07T00:19:29.300Z,100500.99
2019-02-07T00:21:55.464Z,100495.21
2019-02-07T00:24:22.122Z,100500.06
2019-02-07T00:26:48.410Z,100485.74
2019-02-07T00:29:14.863Z,100494.63
2019-02-07T00:31:41.123Z,100496.46
2019-02-07T00:34:07.522Z,100489.81
2019-02-07T00:36:33.677Z,100493.66
2019-02-07T00:38:59.839Z,100494.59
2019-02-07T00:41:26.339Z,100489.99
2019-02-07T00:43:53.005Z,100489.88
2019-02-07T00:46:19.178Z,100486.83
2019-02-07T00:48:45.452Z,100488.89
2019-02-07T00:51:11.612Z,100483.80
2019-02-07T00:53:37.769Z,100491.22
2019-02-07T00:56:04.009Z,100493.80
2019-02-07T00:58:30.174Z,100489.44
2019-02-07T01:00:56.432Z,100496.75
2019-02-07T01:03:23.034Z,100487.87
2019-02-07T01:05:49.402Z,100490.34
2019-02-07T01:08:15.662Z,100490.64
2019-02-07T01:10:41.896Z,100488.25
2019-02-07T01:13:08.109Z,100486.61
2019-02-07T01:15:34.570Z,100493.23
2019-02-07T01:18:00.750Z,100480.44
2019-02-07T01:20:27.005Z,100481.47
2019-02-07T01:22:53.867Z,100482.62
2019-02-07T01:25:21.324Z,100480.59
2019-02-07T01:27:47.974Z,100485.33
2019-02-07T01:30:17.031Z,100477.89
2019-02-07T01:32:43.225Z,100479.52
2019-02-07T01:35:09.379Z,100484.15
2019-02-07T01:37:35.534Z,100483.44
2019-02-07T01:40:03.220Z,100477.91
2019-02-07T01:42:29.682Z,100472.44
2019-02-07T01:44:55.837Z,100468.33
2019-02-07T01:47:22.441Z,100473.91
2019-02-07T01:49:48.604Z,100474.14
2019-02-07T01:52:14.758Z,100471.95
2019-02-07T01:54:41.073Z,100470.31
2019-02-07T01:57:14.462Z,100468.30
2019-02-07T01:59:41.129Z,100461.96
2019-02-07T02:02:07.438Z,100463.66
2019-02-07T02:04:33.713Z,100467.79
2019-02-07T02:06:59.868Z,100470.09
2019-02-07T02:09:26.071Z,100478.95
2019-02-07T02:11:52.439Z,100475.91
2019-02-07T02:14:18.690Z,100470.87
2019-02-07T02:16:44.984Z,100471.52
2019-02-07T02:19:11.656Z,100466.28
2019-02-07T02:21:38.014Z,100468.95
2019-02-07T02:24:04.509Z,100466.89
2019-02-07T02:26:30.774Z,100471.27
2019-02-07T02:28:56.934Z,100474.53
2019-02-07T02:31:23.235Z,100471.75
2019-02-07T02:33:49.392Z,100467.98
2019-02-07T02:36:15.661Z,100468.69
2019-02-07T02:38:41.956Z,100476.47
2019-02-07T02:41:08.475Z,100474.29
2019-02-07T02:43:34.744Z,100470.50
2019-02-07T02:46:00.931Z,100476.30
2019-02-07T02:48:27.089Z,100475.34
2019-02-07T02:50:53.262Z,100471.59
2019-02-07T02:55:51.918Z,100477.84
2019-02-07T02:58:18.636Z,100480.17
2019-02-07T03:00:46.722Z,100481.63
2019-02-07T03:03:17.546Z,100481.26
2019-02-07T03:05:45.606Z,100483.51
2019-02-07T03:08:16.477Z,100486.98
2019-02-07T03:11:00.855Z,100487.98
2019-02-07T03:13:46.868Z,100486.65
2019-02-07T03:16:20.588Z,100497.75
2019-02-07T03:18:57.336Z,100487.03
2019-02-07T03:21:34.251Z,100486.65
2019-02-07T03:24:20.594Z,100493.22
2019-02-07T03:27:06.748Z,100490.94
2019-02-07T03:29:51.334Z,100489.92
2019-02-07T03:32:19.392Z,100480.42
2019-02-07T03:34:47.447Z,100473.83
2019-02-07T03:37:24.358Z,100470.27
2019-02-07T03:40:04.278Z,100483.43
2019-02-07T03:42:32.371Z,100478.81
2019-02-07T03:45:03.630Z,100472.62
2019-02-07T03:47:34.534Z,100475.30
2019-02-07T03:50:02.600Z,100474.46
2019-02-07T03:52:30.663Z,100482.44
2019-02-07T03:55:01.569Z,100478.03
2019-02-07T03:57:46.024Z,100483.09
2019-02-07T04:00:26.793Z,100483.77
2019-02-07T04:03:11.479Z,100484.35
2019-02-07T04:05:54.710Z,100490.91
2019-02-07T04:08:28.655Z,100484.16
2019-02-07T04:11:13.187Z,100482.72
2019-02-07T04:16:34.621Z,100485.75
2019-02-07T04:19:11.406Z,100484.90
2019-02-07T04:21:55.960Z,100484.83
2019-02-07T04:24:39.514Z,100476.49
2019-02-07T04:27:13.126Z,100481.81
2019-02-07T04:29:41.187Z,100480.66
2019-02-07T04:35:13.748Z,100489.05
2019-02-07T04:37:45.755Z,100490.89
2019-02-07T04:40:13.841Z,100496.68
2019-02-07T04:42:45.095Z,100489.62
2019-02-07T04:48:11.179Z,100496.78
2019-02-07T04:50:48.302Z,100501.77
2019-02-07T04:53:16.362Z,100496.39
2019-02-07T04:55:53.155Z,100497.08
2019-02-07T05:01:18.890Z,100494.14
2019-02-07T05:03:47.016Z,100496.95
2019-02-07T05:09:30.583Z,100501.91
2019-02-07T05:12:04.852Z,100500.75
2019-02-07T05:14:35.760Z,100506.83
2019-02-07T05:20:15.716Z,100506.32
2019-02-07T05:22:46.807Z,100510.07
2019-02-07T05:28:02.076Z,100516.19
2019-02-07T05:30:33.083Z,100516.89
2019-02-07T05:33:17.713Z,100524.94
2019-02-07T05:35:45.782Z,100522.41
2019-02-07T05:38:22.892Z,100527.36
2019-02-07T05:40:57.180Z,100534.30
2019-02-07T05:43:25.551Z,100530.14
2019-02-07T05:46:10.545Z,100531.16
2019-02-07T05:48:53.488Z,100535.76
2019-02-07T05:51:37.965Z,100538.34
2019-02-07T05:54:23.449Z,100547.80
2019-02-07T05:56:54.578Z,100546.25
2019-02-07T05:59:39.129Z,100539.40
2019-02-07T06:02:23.583Z,100539.50
2019-02-07T06:04:54.383Z,100544.30
2019-02-07T06:07:31.175Z,100541.95
2019-02-07T06:09:59.284Z,100543.49
2019-02-07T06:12:33.246Z,100542.00
2019-02-07T06:15:01.350Z,100550.86
2019-02-07T06:17:32.197Z,100548.87
2019-02-07T06:20:00.354Z,100551.61
2019-02-07T06:22:28.511Z,100549.09
2019-02-07T06:25:13.485Z,100546.66
2019-02-07T06:27:50.819Z,100540.63
2019-02-07T06:30:21.639Z,100545.20
2019-02-07T06:33:04.593Z,100539.53
2019-02-07T06:35:35.185Z,100536.51
2019-02-07T06:41:03.593Z,100524.27
2019-02-07T06:43:31.687Z,100521.28
2019-02-07T06:46:05.782Z,100521.53
2019-02-07T06:48:50.204Z,100515.31
2019-02-07T06:51:21.298Z,100507.95
2019-02-07T06:53:58.438Z,100510.31
2019-02-07T06:56:26.517Z,100510.86
2019-02-07T06:59:03.455Z,100505.30
2019-02-07T07:01:31.542Z,100508.14
2019-02-07T07:04:16.716Z,100498.15
2019-02-07T07:06:57.031Z,100509.52
2019-02-07T07:09:25.132Z,100499.86
2019-02-07T07:11:55.971Z,100498.26
2019-02-07T07:14:26.748Z,100500.56
2019-02-07T07:17:06.613Z,100503.33
2019-02-07T07:19:37.628Z,100495.66
2019-02-07T07:22:22.762Z,100498.31
2019-02-07T07:25:08.721Z,100496.48
2019-02-07T07:27:53.477Z,100498.53
2019-02-07T07:30:39.645Z,100494.06
2019-02-07T07:33:07.716Z,100497.30
2019-02-07T07:35:41.606Z,100503.95
2019-02-07T07:38:15.459Z,100505.27
2019-02-07T07:40:49.220Z,100500.55
2019-02-07T07:43:26.343Z,100504.55
2019-02-07T07:46:00.262Z,100506.97
2019-02-07T07:48:28.331Z,100506.68
2019-02-07T07:50:56.799Z,100515.96
2019-02-07T07:53:24.924Z,100514.34
2019-02-07T07:56:09.383Z,100519.19
2019-02-07T07:58:37.475Z,100521.87
2019-02-07T08:01:08.074Z,100524.92
2019-02-07T08:03:36.459Z,100528.04
2019-02-07T08:06:13.468Z,100526.30
2019-02-07T08:08:50.381Z,100529.42
2019-02-07T08:11:27.465Z,100525.95
2019-02-07T08:14:13.798Z,100535.16
2019-02-07T08:16:41.904Z,100530.30
2019-02-07T08:19:25.037Z,100529.44
2019-02-07T08:21:53.146Z,100522.18
2019-02-07T08:24:26.792Z,100528.13
2019-02-07T08:26:54.894Z,100533.91
2019-02-07T08:29:31.809Z,100543.55
2019-02-07T08:32:18.048Z,100533.87
2019-02-07T08:34:48.889Z,100539.23
2019-02-07T08:37:17.926Z,100536.25
2019-02-07T08:42:41.290Z,100529.25
2019-02-07T08:45:23.427Z,100532.97
2019-02-07T08:47:58.389Z,100521.45
2019-02-07T08:50:24.293Z,100516.44
2019-02-07T08:52:54.306Z,100503.86
2019-02-07T08:55:31.474Z,100505.91
2019-02-07T08:58:00.556Z,100499.13
2019-02-07T09:00:28.629Z,100504.80
2019-02-07T09:02:59.266Z,100497.28
2019-02-07T09:05:30.123Z,100504.50
2019-02-07T09:08:14.558Z,100510.30
2019-02-07T09:11:01.027Z,100509.17
2019-02-07T09:13:45.481Z,100502.85
2019-02-07T09:16:30.062Z,100501.50
2019-02-07T09:19:16.518Z,100504.87
2019-02-07T09:21:53.653Z,100501.01
2019-02-07T09:24:21.726Z,100497.12
2019-02-07T09:26:49.791Z,100505.63
2019-02-07T09:29:34.572Z,100498.48
2019-02-07T09:32:14.594Z,100490.02
2019-02-07T09:34:45.537Z,100488.72
2019-02-07T09:37:28.680Z,100491.49
2019-02-07T09:40:05.952Z,100496.80
2019-02-07T09:42:36.959Z,100497.72
2019-02-07T09:45:08.367Z,100482.99
2019-02-07T09:47:45.001Z,100480.29
2019-02-07T09:50:19.706Z,100484.09
2019-02-07T09:52:47.800Z,100484.99
2019-02-07T09:55:28.196Z,100473.41
2019-02-07T09:58:01.974Z,100470.13
2019-02-07T10:00:32.674Z,100471.19
2019-02-07T10:03:06.547Z,100469.00
2019-02-07T10:08:14.086Z,100454.11
2019-02-07T10:13:43.390Z,100456.38
2019-02-07T10:16:17.323Z,100444.36
2019-02-07T10:18:54.841Z,100438.20
2019-02-07T10:21:31.950Z,100430.35
2019-02-07T10:24:05.612Z,100429.48
2019-02-07T10:26:39.454Z,100428.37
2019-02-07T10:29:07.549Z,100419.31
2019-02-07T10:31:36.207Z,100423.37
2019-02-07T10:34:07.909Z,100419.23
2019-02-07T10:36:44.901Z,100408.55
2019-02-07T10:39:28.079Z,100410.43
2019-02-07T10:42:05.542Z,100405.25
2019-02-07T10:44:33.631Z,100400.13
2019-02-07T10:47:16.820Z,100393.02
2019-02-07T10:49:59.319Z,100390.91
2019-02-07T10:52:35.265Z,100387.09
2019-02-07T10:55:08.911Z,100394.39
2019-02-07T10:57:36.989Z,100394.81
2019-02-07T11:00:11.553Z,100397.39
2019-02-07T11:02:39.742Z,100392.75
2019-02-07T11:05:13.719Z,100388.12
2019-02-07T11:07:45.448Z,100386.89
2019-02-07T11:10:27.849Z,100392.41
2019-02-07T11:12:56.315Z,100404.75
2019-02-07T11:15:36.724Z,100398.55
2019-02-07T11:18:22.442Z,100405.77
2019-02-07T11:20:59.131Z,100406.07
2019-02-07T11:23:43.804Z,100398.66
2019-02-07T11:26:26.728Z,100406.71
2019-02-07T11:29:12.818Z,100397.98
2019-02-07T11:31:41.617Z,100395.55
2019-02-07T11:34:12.713Z,100383.03
2019-02-07T11:39:51.293Z,100389.05
2019-02-07T11:42:22.244Z,100377.88
2019-02-07T11:44:50.758Z,100371.73
2019-02-07T11:47:19.444Z,100368.33
2019-02-07T11:49:50.071Z,100370.17
2019-02-07T11:52:20.891Z,100364.77
2019-02-07T11:54:58.048Z,100368.77
2019-02-07T11:57:26.117Z,100364.38
2019-02-07T12:00:00.757Z,100366.17
2019-02-07T12:02:45.164Z,100359.73
2019-02-07T12:05:13.264Z,100353.13
2019-02-07T12:07:59.438Z,100349.58
2019-02-07T12:10:42.362Z,100349.52
2019-02-07T12:13:19.008Z,100350.59
2019-02-07T12:15:53.849Z,100345.27
2019-02-07T12:18:22.224Z,100335.16
2019-02-07T12:21:02.403Z,100334.98
2019-02-07T12:23:30.473Z,100345.33
2019-02-07T12:26:04.361Z,100335.65
2019-02-07T12:28:49.281Z,100330.20
2019-02-07T12:34:12.445Z,100325.78
2019-02-07T12:36:55.690Z,100331.25
2019-02-07T12:39:40.140Z,100321.07
2019-02-07T12:42:23.580Z,100328.76
2019-02-07T12:44:57.555Z,100335.52
2019-02-07T12:47:31.683Z,100327.67
2019-02-07T12:50:03.905Z,100336.13
2019-02-07T12:52:50.086Z,100337.66
2019-02-07T12:55:18.152Z,100333.44
2019-02-07T12:58:06.926Z,100324.69
2019-02-07T13:00:54.363Z,100337.30
2019-02-07T13:03:31.592Z,100329.41
2019-02-07T13:06:02.218Z,100328.23
2019-02-07T13:08:30.306Z,100336.24
2019-02-07T13:10:59.762Z,100335.25
2019-02-07T13:13:39.967Z,100333.09
2019-02-07T13:16:14.133Z,100332.56
2019-02-07T13:18:42.192Z,100331.75
2019-02-07T13:21:10.252Z,100338.08
2019-02-07T13:23:38.565Z,100338.17
2019-02-07T13:26:09.172Z,100330.55
2019-02-07T13:28:40.133Z,100329.55
2019-02-07T13:31:08.264Z,100334.40
2019-02-07T13:33:39.024Z,100330.89
2019-02-07T13:36:13.234Z,100336.59
2019-02-07T13:38:50.296Z,100334.60
2019-02-07T13:41:18.394Z,100341.84
2019-02-07T13:44:04.574Z,100344.89
2019-02-07T13:46:35.991Z,100350.98
2019-02-07T13:49:04.063Z,100349.10
2019-02-07T13:51:48.768Z,100349.84
2019-02-07T13:54:31.663Z,100351.02
2019-02-07T13:57:08.486Z,100351.59
2019-02-07T13:59:39.150Z,100347.94
2019-02-07T14:02:23.987Z,100341.73
2019-02-07T14:04:52.556Z,100347.59
2019-02-07T14:07:29.754Z,100347.78
2019-02-07T14:10:06.629Z,100343.00
2019-02-07T14:12:37.761Z,100349.02
2019-02-07T14:15:11.882Z,100351.59
2019-02-07T14:17:51.815Z,100352.75
2019-02-07T14:20:19.885Z,100350.11
2019-02-07T14:22:50.447Z,100345.20
2019-02-07T14:25:27.724Z,100345.05
2019-02-07T14:27:55.787Z,100346.88
2019-02-07T14:30:29.488Z,100344.46
2019-02-07T14:33:03.194Z,100341.91
2019-02-07T14:35:37.243Z,100335.86
2019-02-07T14:38:24.016Z,100337.42
2019-02-07T14:41:10.657Z,100328.84
2019-02-07T14:43:44.546Z,100330.12
2019-02-07T14:46:18.499Z,100339.51
2019-02-07T14:48:45.286Z,100330.14
2019-02-07T14:51:11.616Z,100330.59
2019-02-07T14:53:37.955Z,100326.02
2019-02-07T14:56:04.111Z,100320.52
2019-02-07T14:58:31.312Z,100315.45
2019-02-07T15:00:57.555Z,100306.66
2019-02-07T15:03:24.477Z,100298.46
2019-02-07T15:05:51.060Z,100293.58
2019-02-07T15:08:17.287Z,100296.53
2019-02-07T15:10:43.516Z,100296.45
2019-02-07T15:13:10.596Z,100295.26
2019-02-07T15:15:38.164Z,100299.95
2019-02-07T15:18:04.890Z,100294.41
2019-02-07T15:20:31.036Z,100292.66
2019-02-07T15:22:57.543Z,100295.52
2019-02-07T15:25:25.634Z,100297.17
2019-02-07T15:27:51.796Z,100302.39
2019-02-07T15:30:20.123Z,100302.16
2019-02-07T15:32:46.307Z,100294.63
2019-02-07T15:35:19.172Z,100299.41
2019-02-07T15:37:45.505Z,100291.87
2019-02-07T15:40:15.707Z,100299.59
2019-02-07T15:42:41.866Z,100303.44
2019-02-07T15:45:11.069Z,100305.09
2019-02-07T15:47:37.638Z,100298.91
2019-02-07T15:50:07.401Z,100305.36
2019-02-07T15:52:33.598Z,100314.17
2019-02-07T15:54:59.885Z,100309.27
2019-02-07T15:57:26.623Z,100313.08
2019-02-07T15:59:53.036Z,100311.13
2019-02-07T16:02:19.857Z,100322.23
2019-02-07T16:04:46.126Z,100316.72
2019-02-07T16:07:12.553Z,100319.39
2019-02-07T16:09:38.890Z,100321.28
2019-02-07T16:12:05.450Z,100323.20
2019-02-07T16:14:31.691Z,100322.26
2019-02-07T16:16:58.357Z,100330.67
2019-02-07T16:19:24.521Z,100322.30
2019-02-07T16:21:50.812Z,100326.11
2019-02-07T16:24:17.146Z,100320.06
2019-02-07T16:26:43.277Z,100322.00
2019-02-07T16:29:09.471Z,100324.20
2019-02-07T16:31:36.039Z,100326.61
2019-02-07T16:34:02.225Z,100325.45
2019-02-07T16:36:29.031Z,100329.91
2019-02-07T16:38:55.393Z,100329.70
2019-02-07T16:41:21.863Z,100327.33
2019-02-07T16:43:48.562Z,100330.70
2019-02-07T16:46:14.736Z,100330.24
2019-02-07T16:48:41.009Z,100335.64
2019-02-07T16:51:07.299Z,100329.07
2019-02-07T16:53:33.452Z,100326.22
2019-02-07T16:56:00.221Z,100330.36
2019-02-07T16:58:29.418Z,100331.63
2019-02-07T17:00:55.691Z,100325.61
2019-02-07T17:03:21.847Z,100326.69
2019-02-07T17:05:48.356Z,100329.58
2019-02-07T17:08:14.612Z,100335.08
2019-02-07T17:10:41.041Z,100330.94
2019-02-07T17:13:12.820Z,100328.59
2019-02-07T17:15:39.529Z,100328.76
2019-02-07T17:18:05.795Z,100330.95
2019-02-07T17:20:32.319Z,100327.00
2019-02-07T17:22:58.596Z,100338.27
2019-02-07T17:25:26.535Z,100328.00
2019-02-07T17:27:52.764Z,100328.81
2019-02-07T17:30:20.540Z,100327.19
2019-02-07T17:32:47.007Z,100330.38
2019-02-07T17:35:14.607Z,100328.73
2019-02-07T17:37:42.723Z,100316.45
2019-02-07T17:40:12.508Z,100321.16
2019-02-07T17:42:41.595Z,100321.41
2019-02-07T17:45:10.883Z,100320.88
2019-02-07T17:47:37.142Z,100312.23
2019-02-07T17:50:13.632Z,100312.35
2019-02-07T17:52:39.788Z,100321.54
2019-02-07T17:55:12.715Z,100317.84
2019-02-07T17:57:39.026Z,100312.80
2019-02-07T18:00:19.649Z,100318.16
2019-02-07T18:02:46.217Z,100314.80
2019-02-07T18:05:12.488Z,100319.45
2019-02-07T18:07:41.519Z,100313.52
2019-02-07T18:10:10.469Z,100311.72
2019-02-07T18:12:36.790Z,100311.83
2019-02-07T18:15:05.359Z,100308.82
2019-02-07T18:17:31.668Z,100312.13
2019-02-07T18:19:58.541Z,100306.84
2019-02-07T18:22:26.808Z,100312.14
2019-02-07T18:24:55.120Z,100305.73
2019-02-07T18:27:21.281Z,100302.05
2019-02-07T18:29:47.439Z,100304.33
2019-02-07T18:32:13.757Z,100305.91
2019-02-07T18:34:40.026Z,100297.17
2019-02-07T18:37:06.184Z,100299.70
2019-02-07T18:39:32.891Z,100302.33
2019-02-07T18:41:59.047Z,100298.10
2019-02-07T18:44:25.212Z,100309.00
2019-02-07T18:46:51.499Z,100307.38
2019-02-07T18:49:17.652Z,100301.58
2019-02-07T18:51:45.911Z,100305.70
2019-02-07T18:54:12.015Z,100303.06
2019-02-07T18:56:38.269Z,100307.42
2019-02-07T18:59:04.941Z,100314.64
2019-02-07T19:01:31.136Z,100307.46
2019-02-07T19:03:57.401Z,100314.97
2019-02-07T19:06:23.660Z,100314.83
2019-02-07T19:08:49.849Z,100309.81
2019-02-07T19:11:16.010Z,100310.63
2019-02-07T19:13:42.176Z,100310.81
2019-02-07T19:16:08.387Z,100309.50
2019-02-07T19:18:34.606Z,100307.20
2019-02-07T19:21:01.379Z,100307.59
2019-02-07T19:23:28.571Z,100305.88
2019-02-07T19:25:54.736Z,100311.03
2019-02-07T19:28:21.017Z,100303.18
2019-02-07T19:30:47.226Z,100305.16
2019-02-07T19:33:13.601Z,100304.66
2019-02-07T19:35:39.780Z,100294.23
2019-02-07T19:38:05.984Z,100297.28
2019-02-07T19:40:32.531Z,100291.02
2019-02-07T19:42:58.873Z,100290.82
2019-02-07T19:45:27.080Z,100287.09
2019-02-07T19:47:53.682Z,100290.52
2019-02-07T19:50:29.596Z,100286.27
2019-02-07T19:52:56.356Z,100287.11
2019-02-07T19:55:25.522Z,100290.43
2019-02-07T19:57:54.128Z,100292.28
2019-02-07T20:00:23.298Z,100294.95
2019-02-07T20:02:49.663Z,100291.91
2019-02-07T20:05:15.870Z,100293.81
2019-02-07T20:07:42.135Z,100287.96
2019-02-07T20:10:11.600Z,100295.52
2019-02-07T20:12:37.793Z,100290.77
2019-02-07T20:15:07.658Z,100283.52
2019-02-07T20:17:35.311Z,100284.78
2019-02-07T20:20:01.633Z,100281.55
2019-02-07T20:22:27.884Z,100287.30
2019-02-07T20:24:54.046Z,100276.66
2019-02-07T20:27:20.344Z,100279.17
2019-02-07T20:29:47.784Z,100280.75
2019-02-07T20:32:13.954Z,100283.12
2019-02-07T20:34:40.255Z,100286.79
2019-02-07T20:37:06.520Z,100280.59
2019-02-07T20:39:33.104Z,100284.31
2019-02-07T20:41:59.302Z,100285.02
2019-02-07T20:44:25.479Z,100281.54
2019-02-07T20:46:51.624Z,100282.23
2019-02-07T20:49:17.811Z,100283.92
2019-02-07T20:51:44.182Z,100284.84
2019-02-07T20:54:10.338Z,100277.00
2019-02-07T20:56:36.648Z,100278.53
2019-02-07T20:59:02.928Z,100276.36
2019-02-07T21:01:29.496Z,100270.77
2019-02-07T21:03:55.704Z,100272.64
2019-02-07T21:06:21.878Z,100265.45
2019-02-07T21:08:48.051Z,100265.88
2019-02-07T21:11:14.357Z,100268.69
2019-02-07T21:13:40.613Z,100264.67
2019-02-07T21:16:06.771Z,100263.25
2019-02-07T21:18:32.969Z,100266.83
2019-02-07T21:20:59.271Z,100262.60
2019-02-07T21:23:25.544Z,100257.01
2019-02-07T21:25:51.946Z,100261.42
2019-02-07T21:28:18.113Z,100262.62
2019-02-07T21:30:44.282Z,100259.48
2019-02-07T21:33:10.571Z,100255.17
2019-02-07T21:35:36.741Z,100252.67
2019-02-07T21:38:04.395Z,100256.45
2019-02-07T21:40:31.004Z,100253.08
2019-02-07T21:42:58.973Z,100259.61
2019-02-07T21:45:26.031Z,100253.73
2019-02-07T21:47:52.940Z,100250.03
2019-02-07T21:50:21.490Z,100255.88
2019-02-07T21:52:47.868Z,100252.31
2019-02-07T21:55:17.065Z,100258.25
2019-02-07T21:57:43.335Z,100254.73
2019-02-07T22:00:16.113Z,100252.89
2019-02-07T22:02:42.299Z,100251.09
2019-02-07T22:05:08.979Z,100249.86
2019-02-07T22:07:35.242Z,100255.16
2019-02-07T22:10:05.697Z,100246.08
2019-02-07T22:12:31.964Z,100247.03
2019-02-07T22:14:58.117Z,100248.03
2019-02-07T22:17:24.319Z,100254.84
2019-02-07T22:19:50.482Z,100253.50
2019-02-07T22:22:16.722Z,100249.77
2019-02-07T22:24:43.122Z,100257.48
2019-02-07T22:27:09.381Z,100247.58
2019-02-07T22:29:35.651Z,100246.20
2019-02-07T22:32:01.845Z,100248.42
2019-02-07T22:34:28.106Z,100241.69
2019-02-07T22:36:54.305Z,100236.59
2019-02-07T22:39:20.603Z,100233.00
2019-02-07T22:41:46.864Z,100239.20
2019-02-07T22:44:13.425Z,100228.64
2019-02-07T22:46:39.626Z,100233.52
2019-02-07T22:49:05.896Z,100231.19
2019-02-07T22:51:32.171Z,100231.28
2019-02-07T22:53:58.383Z,100230.11
2019-02-07T22:56:24.656Z,100230.13
2019-02-07T22:58:50.942Z,100228.11
2019-02-07T23:01:19.354Z,100228.77
2019-02-07T23:03:45.924Z,100221.61
2019-02-07T23:06:12.210Z,100225.95
2019-02-07T23:08:38.534Z,100228.33
2019-02-07T23:11:06.811Z,100226.82
2019-02-07T23:13:33.073Z,100229.97
2019-02-07T23:15:59.263Z,100225.28
2019-02-07T23:18:25.537Z,100229.39
2019-02-07T23:20:51.783Z,100230.98
2019-02-07T23:23:19.223Z,100225.27
2019-02-07T23:25:45.486Z,100222.20
2019-02-07T23:28:12.742Z,100225.46
2019-02-07T23:30:39.044Z,100224.34
2019-02-07T23:33:05.520Z,100225.23
2019-02-07T23:35:31.790Z,100222.18
2019-02-07T23:37:58.118Z,100217.50
2019-02-07T23:40:24.291Z,100215.69
2019-02-07T23:42:50.560Z,100214.05
2019-02-07T23:45:23.476Z,100214.68
2019-02-07T23:47:49.752Z,100217.94
2019-02-07T23:50:16.407Z,100207.98
2019-02-07T23:52:42.921Z,100203.57
2019-02-07T23:55:13.432Z,100203.39
2019-02-07T23:57:39.716Z,100196.61
